sensor_id;sensor_type;location;lat;lon;timestamp;pressure;altitude;pressure_sealevel;temperature;humidity
5062;BME280;2351;50.812;12.872;2023-05-11T00:01:31;97614.81;;;12.13;100.00
5062;BME280;2351;50.812;12.872;2023-05-11T00:04:03;97609.69;;;12.11;100.00
5062;BME280;2351;50.812;12.872;2023-05-11T00:06:35;97608.44;;;12.05;100.00
5062;BME280;2351;50.812;12.872;2023-05-11T00:09:06;97608.75;;;12.02;100.00
5062;BME280;2351;50.812;12.872;2023-05-11T00:11:38;97612.41;;;12.01;100.00
5062;BME280;2351;50.812;12.872;2023-05-11T00:14:11;97610.88;;;11.99;100.00
5062;BME280;2351;50.812;12.872;2023-05-11T00:16:43;97616.28;;;11.97;100.00
5062;BME280;2351;50.812;12.872;2023-05-11T00:19:15;97611.81;;;11.98;100.00
5062;BME280;2351;50.812;12.872;2023-05-11T00:21:46;97609.16;;;11.98;100.00
5062;BME280;2351;50.812;12.872;2023-05-11T00:24:18;97612.66;;;11.98;100.00
5062;BME280;2351;50.812;12.872;2023-05-11T00:26:50;97604.03;;;11.96;100.00
5062;BME280;2351;50.812;12.872;2023-05-11T00:29:24;97595.38;;;11.94;100.00
5062;BME280;2351;50.812;12.872;2023-05-11T00:31:55;97598.47;;;11.89;100.00
5062;BME280;2351;50.812;12.872;2023-05-11T00:34:27;97595.97;;;11.88;100.00
5062;BME280;2351;50.812;12.872;2023-05-11T00:36:59;97595.16;;;11.87;100.00
5062;BME280;2351;50.812;12.872;2023-05-11T00:39:30;97594.28;;;11.87;100.00
5062;BME280;2351;50.812;12.872;2023-05-11T00:42:09;97591.50;;;11.88;100.00
5062;BME280;2351;50.812;12.872;2023-05-11T00:44:42;97583.69;;;11.87;100.00
5062;BME280;2351;50.812;12.872;2023-05-11T00:47:14;97584.66;;;11.86;100.00
5062;BME280;2351;50.812;12.872;2023-05-11T00:49:46;97580.34;;;11.85;100.00
5062;BME280;2351;50.812;12.872;2023-05-11T00:52:20;97588.59;;;11.82;100.00
5062;BME280;2351;50.812;12.872;2023-05-11T00:54:52;97580.63;;;11.82;100.00
5062;BME280;2351;50.812;12.872;2023-05-11T00:57:24;97580.63;;;11.82;100.00
5062;BME280;2351;50.812;12.872;2023-05-11T00:59:58;97583.28;;;11.82;100.00
5062;BME280;2351;50.812;12.872;2023-05-11T01:02:32;97573.66;;;11.81;100.00
5062;BME280;2351;50.812;12.872;2023-05-11T01:05:04;97577.84;;;11.83;100.00
5062;BME280;2351;50.812;12.872;2023-05-11T01:07:42;97577.00;;;11.83;100.00
5062;BME280;2351;50.812;12.872;2023-05-11T01:10:20;97577.84;;;11.83;100.00
5062;BME280;2351;50.812;12.872;2023-05-11T01:12:59;97577.69;;;11.85;100.00
5062;BME280;2351;50.812;12.872;2023-05-11T01:15:42;97583.84;;;11.85;100.00
5062;BME280;2351;50.812;12.872;2023-05-11T01:18:19;97584.53;;;11.87;100.00
5062;BME280;2351;50.812;12.872;2023-05-11T01:20:55;97580.91;;;11.88;100.00
5062;BME280;2351;50.812;12.872;2023-05-11T01:23:54;97585.22;;;11.89;100.00
5062;BME280;2351;50.812;12.872;2023-05-11T01:26:34;97572.25;;;11.86;100.00
5062;BME280;2351;50.812;12.872;2023-05-11T01:29:44;97578.69;;;11.84;100.00
5062;BME280;2351;50.812;12.872;2023-05-11T01:32:22;97574.34;;;11.83;100.00
5062;BME280;2351;50.812;12.872;2023-05-11T01:35:00;97578.69;;;11.84;100.00
5062;BME280;2351;50.812;12.872;2023-05-11T01:37:34;97580.34;;;11.85;100.00
5062;BME280;2351;50.812;12.872;2023-05-11T01:40:11;97569.91;;;11.83;100.00
5062;BME280;2351;50.812;12.872;2023-05-11T01:42:47;97584.28;;;11.81;100.00
5062;BME280;2351;50.812;12.872;2023-05-11T01:45:21;97580.97;;;11.79;100.00
5062;BME280;2351;50.812;12.872;2023-05-11T01:47:55;97584.59;;;11.78;100.00
5062;BME280;2351;50.812;12.872;2023-05-11T01:50:28;97566.16;;;11.76;100.00
5062;BME280;2351;50.812;12.872;2023-05-11T01:53:03;97581.94;;;11.78;100.00
5062;BME280;2351;50.812;12.872;2023-05-11T01:55:36;97580.97;;;11.79;100.00
5062;BME280;2351;50.812;12.872;2023-05-11T01:58:12;97579.13;;;11.79;100.00
5062;BME280;2351;50.812;12.872;2023-05-11T02:00:46;97580.28;;;11.77;100.00
5062;BME280;2351;50.812;12.872;2023-05-11T02:03:20;97579.88;;;11.71;100.00
5062;BME280;2351;50.812;12.872;2023-05-11T02:05:53;97586.31;;;11.69;100.00
5062;BME280;2351;50.812;12.872;2023-05-11T02:08:26;97581.84;;;11.69;100.00
5062;BME280;2351;50.812;12.872;2023-05-11T02:11:01;97583.50;;;11.70;100.00
5062;BME280;2351;50.812;12.872;2023-05-11T02:13:34;97584.19;;;11.72;100.00
5062;BME280;2351;50.812;12.872;2023-05-11T02:16:07;97581.56;;;11.72;100.00
5062;BME280;2351;50.812;12.872;2023-05-11T02:18:42;97583.50;;;11.70;100.00
5062;BME280;2351;50.812;12.872;2023-05-11T02:21:15;97584.50;;;11.69;100.00
5062;BME280;2351;50.812;12.872;2023-05-11T02:23:48;97580.16;;;11.68;100.00
5062;BME280;2351;50.812;12.872;2023-05-11T02:26:20;97574.06;;;11.68;100.00
5062;BME280;2351;50.812;12.872;2023-05-11T02:28:53;97579.47;;;11.66;100.00
5062;BME280;2351;50.812;12.872;2023-05-11T02:31:27;97577.81;;;11.65;100.00
5062;BME280;2351;50.812;12.872;2023-05-11T02:34:06;97575.03;;;11.67;100.00
5062;BME280;2351;50.812;12.872;2023-05-11T02:36:38;97571.53;;;11.66;100.00
5062;BME280;2351;50.812;12.872;2023-05-11T02:39:11;97573.19;;;11.67;100.00
5062;BME280;2351;50.812;12.872;2023-05-11T02:41:44;97574.88;;;11.68;100.00
5062;BME280;2351;50.812;12.872;2023-05-11T02:44:18;97578.22;;;11.70;100.00
5062;BME280;2351;50.812;12.872;2023-05-11T02:46:51;97574.56;;;11.71;100.00
5062;BME280;2351;50.812;12.872;2023-05-11T02:49:28;97575.25;;;11.73;100.00
5062;BME280;2351;50.812;12.872;2023-05-11T02:52:02;97572.63;;;11.73;100.00
5062;BME280;2351;50.812;12.872;2023-05-11T02:54:36;97577.06;;;11.73;100.00
5062;BME280;2351;50.812;12.872;2023-05-11T02:57:09;97570.94;;;11.72;100.00
5062;BME280;2351;50.812;12.872;2023-05-11T02:59:41;97563.69;;;11.74;100.00
5062;BME280;2351;50.812;12.872;2023-05-11T03:02:13;97571.78;;;11.73;100.00
5062;BME280;2351;50.812;12.872;2023-05-11T03:04:46;97566.47;;;11.73;100.00
5062;BME280;2351;50.812;12.872;2023-05-11T03:07:18;97571.78;;;11.73;100.00
5062;BME280;2351;50.812;12.872;2023-05-11T03:09:50;97574.28;;;11.74;100.00
5062;BME280;2351;50.812;12.872;2023-05-11T03:12:22;97578.91;;;11.72;100.00
5062;BME280;2351;50.812;12.872;2023-05-11T03:14:54;97577.22;;;11.71;100.00
5062;BME280;2351;50.812;12.872;2023-05-11T03:17:27;97573.72;;;11.71;100.00
5062;BME280;2351;50.812;12.872;2023-05-11T03:20:01;97576.53;;;11.69;100.00
5062;BME280;2351;50.812;12.872;2023-05-11T03:22:35;97581.31;;;11.66;100.00
5062;BME280;2351;50.812;12.872;2023-05-11T03:25:08;97570.16;;;11.62;100.00
5062;BME280;2351;50.812;12.872;2023-05-11T03:27:42;97572.28;;;11.58;100.00
5062;BME280;2351;50.812;12.872;2023-05-11T03:30:15;97579.69;;;11.55;100.00
5062;BME280;2351;50.812;12.872;2023-05-11T03:32:47;97577.19;;;11.53;100.00
5062;BME280;2351;50.812;12.872;2023-05-11T03:35:21;97578.03;;;11.54;100.00
5062;BME280;2351;50.812;12.872;2023-05-11T03:37:57;97577.06;;;11.55;100.00
5062;BME280;2351;50.812;12.872;2023-05-11T03:40:30;97568.25;;;11.54;100.00
5062;BME280;2351;50.812;12.872;2023-05-11T03:43:04;97572.72;;;11.54;100.00
5062;BME280;2351;50.812;12.872;2023-05-11T03:45:37;97567.44;;;11.54;100.00
5062;BME280;2351;50.812;12.872;2023-05-11T03:48:10;97568.25;;;11.54;100.00
5062;BME280;2351;50.812;12.872;2023-05-11T03:50:46;97570.59;;;11.57;100.00
5062;BME280;2351;50.812;12.872;2023-05-11T03:53:19;97567.97;;;11.57;100.00
5062;BME280;2351;50.812;12.872;2023-05-11T03:55:51;97568.66;;;11.59;100.00
5062;BME280;2351;50.812;12.872;2023-05-11T03:58:24;97571.28;;;11.59;100.00
5062;BME280;2351;50.812;12.872;2023-05-11T04:00:57;97566.00;;;11.59;100.00
5062;BME280;2351;50.812;12.872;2023-05-11T04:03:29;97563.19;;;11.61;100.00
5062;BME280;2351;50.812;12.872;2023-05-11T04:06:02;97569.16;;;11.63;100.00
5062;BME280;2351;50.812;12.872;2023-05-11T04:08:34;97567.78;;;11.59;100.00
5062;BME280;2351;50.812;12.872;2023-05-11T04:11:06;97571.06;;;11.53;100.00
5062;BME280;2351;50.812;12.872;2023-05-11T04:13:37;97564.38;;;11.49;100.00
5062;BME280;2351;50.812;12.872;2023-05-11T04:16:09;97576.25;;;11.44;100.00
5062;BME280;2351;50.812;12.872;2023-05-11T04:18:41;97574.44;;;11.45;100.00
5062;BME280;2351;50.812;12.872;2023-05-11T04:21:14;97573.47;;;11.46;100.00
5062;BME280;2351;50.812;12.872;2023-05-11T04:23:45;97579.59;;;11.47;100.00
5062;BME280;2351;50.812;12.872;2023-05-11T04:26:18;97575.25;;;11.45;100.00
5062;BME280;2351;50.812;12.872;2023-05-11T04:28:50;97577.78;;;11.47;100.00
5062;BME280;2351;50.812;12.872;2023-05-11T04:31:22;97575.97;;;11.48;100.00
5062;BME280;2351;50.812;12.872;2023-05-11T04:33:53;97578.31;;;11.51;100.00
5062;BME280;2351;50.812;12.872;2023-05-11T04:36:26;97578.31;;;11.51;100.00
5062;BME280;2351;50.812;12.872;2023-05-11T04:38:58;97578.31;;;11.51;100.00
5062;BME280;2351;50.812;12.872;2023-05-11T04:41:30;97574.69;;;11.52;100.00
5062;BME280;2351;50.812;12.872;2023-05-11T04:44:01;97584.44;;;11.51;100.00
5062;BME280;2351;50.812;12.872;2023-05-11T04:46:33;97580.00;;;11.52;100.00
5062;BME280;2351;50.812;12.872;2023-05-11T04:49:05;97586.34;;;11.59;100.00
5062;BME280;2351;50.812;12.872;2023-05-11T04:51:38;97581.38;;;11.56;100.00
5062;BME280;2351;50.812;12.872;2023-05-11T04:54:10;97583.84;;;11.57;100.00
5062;BME280;2351;50.812;12.872;2023-05-11T04:56:42;97584.16;;;11.54;100.00
5062;BME280;2351;50.812;12.872;2023-05-11T04:59:14;97585.13;;;11.53;100.00
5062;BME280;2351;50.812;12.872;2023-05-11T05:01:45;97588.34;;;11.57;100.00
5062;BME280;2351;50.812;12.872;2023-05-11T05:04:17;97589.56;;;11.63;100.00
5062;BME280;2351;50.812;12.872;2023-05-11T05:06:50;97585.25;;;11.62;100.00
5062;BME280;2351;50.812;12.872;2023-05-11T05:09:22;97579.19;;;11.41;100.00
5062;BME280;2351;50.812;12.872;2023-05-11T05:11:53;97583.41;;;11.34;100.00
5062;BME280;2351;50.812;12.872;2023-05-11T05:14:25;97591.25;;;11.26;100.00
5062;BME280;2351;50.812;12.872;2023-05-11T05:16:57;97587.56;;;11.37;100.00
5062;BME280;2351;50.812;12.872;2023-05-11T05:19:30;97584.59;;;11.50;100.00
5062;BME280;2351;50.812;12.872;2023-05-11T05:22:03;97588.03;;;11.60;100.00
5062;BME280;2351;50.812;12.872;2023-05-11T05:24:35;97587.59;;;11.65;100.00
5062;BME280;2351;50.812;12.872;2023-05-11T05:27:07;97590.38;;;11.63;100.00
5062;BME280;2351;50.812;12.872;2023-05-11T05:29:38;97592.44;;;11.69;100.00
5062;BME280;2351;50.812;12.872;2023-05-11T05:32:10;97602.06;;;11.70;100.00
5062;BME280;2351;50.812;12.872;2023-05-11T05:34:42;97592.44;;;11.69;100.00
5062;BME280;2351;50.812;12.872;2023-05-11T05:37:17;97594.22;;;11.79;100.00
5062;BME280;2351;50.812;12.872;2023-05-11T05:39:49;97595.44;;;11.84;100.00
5062;BME280;2351;50.812;12.872;2023-05-11T05:42:21;97588.16;;;11.86;100.00
5062;BME280;2351;50.812;12.872;2023-05-11T05:44:52;97598.44;;;11.43;100.00
5062;BME280;2351;50.812;12.872;2023-05-11T05:47:24;97598.78;;;11.21;100.00
5062;BME280;2351;50.812;12.872;2023-05-11T05:49:56;97604.91;;;11.31;100.00
5062;BME280;2351;50.812;12.872;2023-05-11T05:52:29;97603.50;;;11.27;100.00
5062;BME280;2351;50.812;12.872;2023-05-11T05:55:00;97598.38;;;11.25;100.00
5062;BME280;2351;50.812;12.872;2023-05-11T05:57:32;97606.25;;;11.45;100.00
5062;BME280;2351;50.812;12.872;2023-05-11T06:00:05;97607.25;;;11.62;100.00
5062;BME280;2351;50.812;12.872;2023-05-11T06:02:38;97601.91;;;11.72;100.00
5062;BME280;2351;50.812;12.872;2023-05-11T06:05:10;97615.91;;;11.92;100.00
5062;BME280;2351;50.812;12.872;2023-05-11T06:07:43;97616.41;;;11.78;100.00
5062;BME280;2351;50.812;12.872;2023-05-11T06:10:15;97609.75;;;12.01;100.00
5062;BME280;2351;50.812;12.872;2023-05-11T06:12:47;97614.53;;;12.16;100.00
5062;BME280;2351;50.812;12.872;2023-05-11T06:15:18;97614.81;;;12.13;100.00
5062;BME280;2351;50.812;12.872;2023-05-11T06:17:50;97616.09;;;12.09;100.00
5062;BME280;2351;50.812;12.872;2023-05-11T06:20:22;97609.16;;;12.26;100.00
5062;BME280;2351;50.812;12.872;2023-05-11T06:22:55;97617.72;;;12.38;100.00
5062;BME280;2351;50.812;12.872;2023-05-11T06:25:27;97615.97;;;12.46;100.00
5062;BME280;2351;50.812;12.872;2023-05-11T06:27:59;97619.53;;;12.55;100.00
5062;BME280;2351;50.812;12.872;2023-05-11T06:30:31;97620.28;;;12.65;100.00
5062;BME280;2351;50.812;12.872;2023-05-11T06:33:02;97624.53;;;12.58;100.00
5062;BME280;2351;50.812;12.872;2023-05-11T06:35:35;97618.63;;;12.64;100.00
5062;BME280;2351;50.812;12.872;2023-05-11T06:38:08;97622.06;;;12.57;100.00
5062;BME280;2351;50.812;12.872;2023-05-11T06:40:40;97618.06;;;12.61;100.00
5062;BME280;2351;50.812;12.872;2023-05-11T06:43:11;97621.13;;;12.66;100.00
5062;BME280;2351;50.812;12.872;2023-05-11T06:45:44;97621.03;;;12.76;100.00
5062;BME280;2351;50.812;12.872;2023-05-11T06:48:15;97618.53;;;12.74;100.00
5062;BME280;2351;50.812;12.872;2023-05-11T06:50:47;97620.00;;;12.69;100.00
5062;BME280;2351;50.812;12.872;2023-05-11T06:53:20;97621.88;;;12.76;100.00
5062;BME280;2351;50.812;12.872;2023-05-11T06:55:53;97616.00;;;12.91;100.00
5062;BME280;2351;50.812;12.872;2023-05-11T06:58:25;97607.22;;;12.90;100.00
5062;BME280;2351;50.812;12.872;2023-05-11T07:00:56;97613.84;;;12.94;100.00
5062;BME280;2351;50.812;12.872;2023-05-11T07:03:28;97620.44;;;13.08;100.00
5062;BME280;2351;50.812;12.872;2023-05-11T07:06:00;97603.25;;;13.21;100.00
5062;BME280;2351;50.812;12.872;2023-05-11T07:08:33;97609.06;;;13.24;100.00
5062;BME280;2351;50.812;12.872;2023-05-11T07:11:05;97611.78;;;13.06;100.00
5062;BME280;2351;50.812;12.872;2023-05-11T07:13:37;97616.03;;;13.52;100.00
5062;BME280;2351;50.812;12.872;2023-05-11T07:16:08;97613.69;;;13.83;100.00
5062;BME280;2351;50.812;12.872;2023-05-11T07:18:40;97603.44;;;13.97;100.00
5062;BME280;2351;50.812;12.872;2023-05-11T07:21:12;97616.59;;;14.15;100.00
5062;BME280;2351;50.812;12.872;2023-05-11T07:23:45;97612.28;;;14.22;100.00
5062;BME280;2351;50.812;12.872;2023-05-11T07:26:17;97621.75;;;14.25;100.00
5062;BME280;2351;50.812;12.872;2023-05-11T07:28:48;97611.81;;;14.52;100.00
5062;BME280;2351;50.812;12.872;2023-05-11T07:31:20;97620.19;;;14.82;100.00
5062;BME280;2351;50.812;12.872;2023-05-11T07:33:52;97612.69;;;14.94;100.00
5062;BME280;2351;50.812;12.872;2023-05-11T07:36:24;97625.03;;;14.78;100.00
5062;BME280;2351;50.812;12.872;2023-05-11T07:38:57;97620.19;;;14.73;100.00
5062;BME280;2351;50.812;12.872;2023-05-11T07:41:30;97620.19;;;14.82;100.00
5062;BME280;2351;50.812;12.872;2023-05-11T07:44:02;97623.69;;;14.90;100.00
5062;BME280;2351;50.812;12.872;2023-05-11T07:46:34;97622.69;;;15.00;100.00
5062;BME280;2351;50.812;12.872;2023-05-11T07:49:06;97622.84;;;14.98;98.90
5062;BME280;2351;50.812;12.872;2023-05-11T07:51:40;97624.16;;;14.94;96.39
5062;BME280;2351;50.812;12.872;2023-05-11T07:54:13;97626.16;;;15.09;96.44
5062;BME280;2351;50.812;12.872;2023-05-11T07:56:45;97625.81;;;15.20;96.27
5062;BME280;2351;50.812;12.872;2023-05-11T07:59:16;97624.75;;;15.38;95.21
5062;BME280;2351;50.812;12.872;2023-05-11T08:01:48;97620.97;;;15.24;92.44
5062;BME280;2351;50.812;12.872;2023-05-11T08:04:20;97623.84;;;14.97;89.33
5062;BME280;2351;50.812;12.872;2023-05-11T08:06:51;97636.66;;;15.18;89.79
5062;BME280;2351;50.812;12.872;2023-05-11T08:09:24;97637.47;;;15.19;85.91
5062;BME280;2351;50.812;12.872;2023-05-11T08:12:02;97636.63;;;15.27;87.80
5062;BME280;2351;50.812;12.872;2023-05-11T08:14:34;97636.78;;;15.25;87.03
5062;BME280;2351;50.812;12.872;2023-05-11T08:17:07;97628.66;;;15.18;86.21
5062;BME280;2351;50.812;12.872;2023-05-11T08:19:42;97628.47;;;15.20;86.50
5062;BME280;2351;50.812;12.872;2023-05-11T08:22:13;97630.81;;;15.15;85.83
5062;BME280;2351;50.812;12.872;2023-05-11T08:24:47;97625.75;;;15.45;87.54
5062;BME280;2351;50.812;12.872;2023-05-11T08:27:20;97623.13;;;15.76;86.98
5062;BME280;2351;50.812;12.872;2023-05-11T08:29:51;97625.25;;;15.98;85.20
5062;BME280;2351;50.812;12.872;2023-05-11T08:32:23;97621.53;;;16.07;81.81
5062;BME280;2351;50.812;12.872;2023-05-11T08:34:56;97619.72;;;16.31;82.39
5062;BME280;2351;50.812;12.872;2023-05-11T08:37:28;97627.50;;;16.64;82.88
5062;BME280;2351;50.812;12.872;2023-05-11T08:40:01;97618.91;;;16.92;83.34
5062;BME280;2351;50.812;12.872;2023-05-11T08:42:33;97609.69;;;17.17;82.06
5062;BME280;2351;50.812;12.872;2023-05-11T08:45:06;97612.19;;;17.34;78.89
5062;BME280;2351;50.812;12.872;2023-05-11T08:47:40;97617.25;;;17.14;72.52
5062;BME280;2351;50.812;12.872;2023-05-11T08:50:12;97615.63;;;17.43;74.50
5062;BME280;2351;50.812;12.872;2023-05-11T08:52:44;97610.97;;;17.67;73.37
5062;BME280;2351;50.812;12.872;2023-05-11T08:55:18;97616.88;;;17.92;73.67
5062;BME280;2351;50.812;12.872;2023-05-11T08:57:50;97616.41;;;18.03;71.32
5062;BME280;2351;50.812;12.872;2023-05-11T09:00:24;97616.41;;;18.03;67.66
5062;BME280;2351;50.812;12.872;2023-05-11T09:02:56;97601.75;;;17.84;68.12
5062;BME280;2351;50.812;12.872;2023-05-11T09:05:29;97615.59;;;17.73;68.24
5062;BME280;2351;50.812;12.872;2023-05-11T09:08:03;97612.75;;;17.74;69.41
5062;BME280;2351;50.812;12.872;2023-05-11T09:10:37;97606.84;;;17.79;65.66
5062;BME280;2351;50.812;12.872;2023-05-11T09:13:09;97607.41;;;17.74;66.51
5062;BME280;2351;50.812;12.872;2023-05-11T09:15:41;97615.31;;;17.83;67.18
5062;BME280;2351;50.812;12.872;2023-05-11T09:18:13;97609.75;;;17.99;67.00
5062;BME280;2351;50.812;12.872;2023-05-11T09:20:45;97607.63;;;18.10;67.02
5062;BME280;2351;50.812;12.872;2023-05-11T09:23:18;97608.28;;;17.97;65.55
5062;BME280;2351;50.812;12.872;2023-05-11T09:25:56;97606.63;;;18.11;64.85
5062;BME280;2351;50.812;12.872;2023-05-11T09:28:27;97614.13;;;18.22;64.96
5062;BME280;2351;50.812;12.872;2023-05-11T09:30:59;97611.91;;;18.04;62.08
5062;BME280;2351;50.812;12.872;2023-05-11T09:33:31;97617.84;;;18.21;61.49
5062;BME280;2351;50.812;12.872;2023-05-11T09:36:03;97621.59;;;17.90;61.97
5062;BME280;2351;50.812;12.872;2023-05-11T09:38:35;97620.00;;;17.96;63.55
5062;BME280;2351;50.812;12.872;2023-05-11T09:41:08;97623.69;;;17.95;63.24
5062;BME280;2351;50.812;12.872;2023-05-11T09:43:40;97627.38;;;18.09;62.91
5062;BME280;2351;50.812;12.872;2023-05-11T09:46:19;97623.44;;;18.04;62.21
5062;BME280;2351;50.812;12.872;2023-05-11T09:48:57;97620.38;;;18.08;63.19
5062;BME280;2351;50.812;12.872;2023-05-11T09:51:30;97621.97;;;18.39;63.28
5062;BME280;2351;50.812;12.872;2023-05-11T09:54:15;97618.94;;;18.27;60.66
5062;BME280;2351;50.812;12.872;2023-05-11T09:56:50;97619.78;;;18.49;60.09
5062;BME280;2351;50.812;12.872;2023-05-11T09:59:37;97624.38;;;18.55;58.78
5062;BME280;2351;50.812;12.872;2023-05-11T10:02:20;97621.81;;;18.25;58.67
5062;BME280;2351;50.812;12.872;2023-05-11T10:04:54;97617.63;;;18.38;60.16
5062;BME280;2351;50.812;12.872;2023-05-11T10:07:27;97619.94;;;18.62;58.94
5062;BME280;2351;50.812;12.872;2023-05-11T10:10:00;97607.28;;;18.78;60.05
5062;BME280;2351;50.812;12.872;2023-05-11T10:12:34;97615.69;;;18.96;59.63
5062;BME280;2351;50.812;12.872;2023-05-11T10:15:09;97612.50;;;18.86;57.94
5062;BME280;2351;50.812;12.872;2023-05-11T10:17:41;97614.88;;;18.96;59.58
5062;BME280;2351;50.812;12.872;2023-05-11T10:20:13;97608.28;;;18.99;57.91
5062;BME280;2351;50.812;12.872;2023-05-11T10:22:46;97617.03;;;19.07;56.78
5062;BME280;2351;50.812;12.872;2023-05-11T10:25:19;97615.22;;;19.15;56.95
5062;BME280;2351;50.812;12.872;2023-05-11T10:27:53;97604.22;;;19.03;55.55
5062;BME280;2351;50.812;12.872;2023-05-11T10:30:25;97593.72;;;19.08;55.80
5062;BME280;2351;50.812;12.872;2023-05-11T10:32:59;97601.19;;;19.13;55.89
5062;BME280;2351;50.812;12.872;2023-05-11T10:35:31;97605.13;;;19.17;55.41
5062;BME280;2351;50.812;12.872;2023-05-11T10:38:03;97593.66;;;19.01;55.04
5062;BME280;2351;50.812;12.872;2023-05-11T10:40:37;97606.50;;;18.84;55.36
5062;BME280;2351;50.812;12.872;2023-05-11T10:43:29;97596.31;;;18.51;56.49
5062;BME280;2351;50.812;12.872;2023-05-11T10:46:14;97589.53;;;18.77;57.77
5062;BME280;2351;50.812;12.872;2023-05-11T10:49:22;97594.06;;;19.26;56.92
5062;BME280;2351;50.812;12.872;2023-05-11T10:52:13;97585.91;;;19.41;55.85
5062;BME280;2351;50.812;12.872;2023-05-11T10:55:04;97591.34;;;19.62;56.03
5062;BME280;2351;50.812;12.872;2023-05-11T10:57:54;97588.81;;;19.53;54.19
5062;BME280;2351;50.812;12.872;2023-05-11T11:01:03;97586.72;;;19.42;54.30
5062;BME280;2351;50.812;12.872;2023-05-11T11:03:40;97586.84;;;19.62;55.21
5062;BME280;2351;50.812;12.872;2023-05-11T11:06:21;97584.03;;;19.84;53.34
5062;BME280;2351;50.812;12.872;2023-05-11T11:08:55;97578.91;;;19.89;52.92
5062;BME280;2351;50.812;12.872;2023-05-11T11:11:28;97578.22;;;19.80;52.11
5062;BME280;2351;50.812;12.872;2023-05-11T11:14:02;97580.22;;;19.65;50.58
5062;BME280;2351;50.812;12.872;2023-05-11T11:16:36;97572.28;;;19.43;51.47
5062;BME280;2351;50.812;12.872;2023-05-11T11:19:35;97574.00;;;19.57;51.96
5062;BME280;2351;50.812;12.872;2023-05-11T11:25:13;97577.84;;;19.41;50.25
5062;BME280;2351;50.812;12.872;2023-05-11T11:27:56;97577.63;;;19.43;51.22
5062;BME280;2351;50.812;12.872;2023-05-11T11:30:28;97572.72;;;19.53;51.07
5062;BME280;2351;50.812;12.872;2023-05-11T11:33:33;97584.38;;;19.32;49.80
5062;BME280;2351;50.812;12.872;2023-05-11T11:36:05;97586.22;;;19.32;50.83
5062;BME280;2351;50.812;12.872;2023-05-11T11:38:57;97584.34;;;19.25;50.40
5062;BME280;2351;50.812;12.872;2023-05-11T11:41:30;97595.25;;;19.24;50.24
5062;BME280;2351;50.812;12.872;2023-05-11T11:44:03;97596.50;;;19.21;50.70
5062;BME280;2351;50.812;12.872;2023-05-11T11:46:35;97588.06;;;18.96;50.98
5062;BME280;2351;50.812;12.872;2023-05-11T11:49:09;97585.22;;;19.04;51.81
5062;BME280;2351;50.812;12.872;2023-05-11T11:51:40;97574.09;;;19.36;50.83
5062;BME280;2351;50.812;12.872;2023-05-11T11:54:12;97579.00;;;19.25;49.49
5062;BME280;2351;50.812;12.872;2023-05-11T11:57:07;97589.09;;;19.23;49.51
5062;BME280;2351;50.812;12.872;2023-05-11T11:59:56;97590.09;;;19.22;49.92
5062;BME280;2351;50.812;12.872;2023-05-11T12:02:30;97580.47;;;19.35;49.40
5062;BME280;2351;50.812;12.872;2023-05-11T12:05:08;97579.66;;;19.34;49.40
5062;BME280;2351;50.812;12.872;2023-05-11T12:07:43;97590.09;;;19.22;50.46
5062;BME280;2351;50.812;12.872;2023-05-11T12:10:16;97587.28;;;19.02;50.88
5062;BME280;2351;50.812;12.872;2023-05-11T12:12:49;97589.59;;;18.84;50.75
5062;BME280;2351;50.812;12.872;2023-05-11T12:15:25;97604.19;;;18.52;51.10
5062;BME280;2351;50.812;12.872;2023-05-11T12:17:57;97606.25;;;18.35;51.33
5062;BME280;2351;50.812;12.872;2023-05-11T12:20:33;97604.59;;;18.13;50.38
5062;BME280;2351;50.812;12.872;2023-05-11T12:23:04;97610.03;;;18.04;51.01
5062;BME280;2351;50.812;12.872;2023-05-11T12:25:36;97609.88;;;18.06;50.47
5062;BME280;2351;50.812;12.872;2023-05-11T12:28:08;97614.75;;;18.02;50.75
5062;BME280;2351;50.812;12.872;2023-05-11T12:30:52;97609.13;;;17.97;50.75
5062;BME280;2351;50.812;12.872;2023-05-11T12:33:24;97613.19;;;17.93;50.67
5062;BME280;2351;50.812;12.872;2023-05-11T12:35:58;97611.03;;;17.88;51.34
5062;BME280;2351;50.812;12.872;2023-05-11T12:38:29;97608.00;;;17.91;51.82
5062;BME280;2351;50.812;12.872;2023-05-11T12:41:01;97615.22;;;17.91;51.93
5062;BME280;2351;50.812;12.872;2023-05-11T12:43:33;97601.56;;;18.01;51.99
5062;BME280;2351;50.812;12.872;2023-05-11T12:46:05;97598.38;;;18.12;52.78
5062;BME280;2351;50.812;12.872;2023-05-11T12:48:37;97611.63;;;18.57;53.29
5062;BME280;2351;50.812;12.872;2023-05-11T12:51:10;97595.00;;;18.90;51.29
5062;BME280;2351;50.812;12.872;2023-05-11T12:53:41;97604.72;;;18.48;46.72
5062;BME280;2351;50.812;12.872;2023-05-11T12:56:13;97600.75;;;18.44;49.17
5062;BME280;2351;50.812;12.872;2023-05-11T12:58:45;97604.28;;;18.44;48.32
5062;BME280;2351;50.812;12.872;2023-05-11T13:01:22;97597.78;;;18.75;47.91
5062;BME280;2351;50.812;12.872;2023-05-11T13:03:54;97605.72;;;18.90;47.96
5062;BME280;2351;50.812;12.872;2023-05-11T13:06:27;97604.25;;;18.88;46.77
5062;BME280;2351;50.812;12.872;2023-05-11T13:08:59;97611.41;;;18.80;47.95
5062;BME280;2351;50.812;12.872;2023-05-11T13:11:31;97604.19;;;18.52;48.21
5062;BME280;2351;50.812;12.872;2023-05-11T13:14:15;97601.81;;;18.64;47.42
5062;BME280;2351;50.812;12.872;2023-05-11T13:16:51;97609.22;;;18.41;47.68
5062;BME280;2351;50.812;12.872;2023-05-11T13:19:26;97607.88;;;18.51;48.10
5062;BME280;2351;50.812;12.872;2023-05-11T13:22:00;97611.94;;;18.47;47.51
5062;BME280;2351;50.812;12.872;2023-05-11T13:24:31;97604.19;;;18.52;47.46
5062;BME280;2351;50.812;12.872;2023-05-11T13:27:03;97603.84;;;18.62;47.38
5062;BME280;2351;50.812;12.872;2023-05-11T13:29:35;97598.94;;;17.92;48.80
5062;BME280;2351;50.812;12.872;2023-05-11T13:32:07;97594.38;;;18.23;48.32
5062;BME280;2351;50.812;12.872;2023-05-11T13:34:39;97608.13;;;17.68;49.35
5062;BME280;2351;50.812;12.872;2023-05-11T13:37:12;97602.66;;;17.91;49.60
5062;BME280;2351;50.812;12.872;2023-05-11T13:39:43;97595.63;;;17.90;49.46
5062;BME280;2351;50.812;12.872;2023-05-11T13:42:15;97604.44;;;17.54;50.17
5062;BME280;2351;50.812;12.872;2023-05-11T13:44:47;97598.53;;;17.44;49.40